createdAt,value
2023-04-13T00:00:48.941Z,0.87
2023-04-13T00:03:58.320Z,0.50
2023-04-13T00:07:06.963Z,1.13
2023-04-13T00:10:16.061Z,0.70
2023-04-13T00:13:26.267Z,1.00
2023-04-13T00:16:34.671Z,0.60
2023-04-13T00:19:43.292Z,1.50
2023-04-13T00:22:51.805Z,2.00
2023-04-13T00:26:01.772Z,2.03
2023-04-13T00:29:12.038Z,1.20
2023-04-13T00:32:20.589Z,0.70
2023-04-13T00:35:28.975Z,0.83
2023-04-13T00:38:39.940Z,0.70
2023-04-13T00:41:49.288Z,0.87
2023-04-13T00:44:58.996Z,0.80
2023-04-13T00:48:10.881Z,0.90
2023-04-13T00:51:20.058Z,0.90
2023-04-13T00:54:29.317Z,0.90
2023-04-13T00:57:40.324Z,1.33
2023-04-13T01:00:50.086Z,0.90
2023-04-13T01:03:59.467Z,1.27
2023-04-13T01:07:14.136Z,0.97
2023-04-13T01:10:27.805Z,0.97
2023-04-13T01:13:42.109Z,0.83
2023-04-13T01:16:56.900Z,0.93
2023-04-13T01:20:12.247Z,0.80
2023-04-13T01:23:32.354Z,0.93
2023-04-13T01:26:57.345Z,1.07
2023-04-13T01:30:10.883Z,1.20
2023-04-13T01:33:20.850Z,1.40
2023-04-13T01:36:30.536Z,1.10
2023-04-13T01:39:40.028Z,0.97
2023-04-13T01:43:05.057Z,0.87
2023-04-13T01:46:29.979Z,0.90
2023-04-13T01:50:05.092Z,1.20
2023-04-13T01:53:23.069Z,1.37
2023-04-13T01:56:32.110Z,0.80
2023-04-13T01:59:45.016Z,1.10
2023-04-13T02:02:59.778Z,1.30
2023-04-13T02:06:08.887Z,1.40
2023-04-13T02:09:20.295Z,2.60
2023-04-13T02:12:32.547Z,2.20
2023-04-13T02:15:42.904Z,1.23
2023-04-13T02:18:52.745Z,1.67
2023-04-13T02:22:02.227Z,1.30
2023-04-13T02:25:12.720Z,1.50
2023-04-13T02:28:21.125Z,1.53
2023-04-13T02:31:31.969Z,1.70
2023-04-13T02:34:42.726Z,1.80
2023-04-13T02:37:51.801Z,2.00
2023-04-13T02:41:01.327Z,1.90
2023-04-13T02:44:10.456Z,3.10
2023-04-13T02:47:28.787Z,1.80
2023-04-13T02:50:40.963Z,1.70
2023-04-13T02:53:55.307Z,2.17
2023-04-13T02:57:05.180Z,2.20
2023-04-13T03:00:17.543Z,2.10
2023-04-13T03:03:33.317Z,2.20
2023-04-13T03:06:44.285Z,2.17
2023-04-13T03:09:53.848Z,2.40
2023-04-13T03:13:02.364Z,1.90
2023-04-13T03:16:12.101Z,2.67
2023-04-13T03:19:22.063Z,2.80
2023-04-13T03:22:32.207Z,2.47
2023-04-13T03:25:44.230Z,2.53
2023-04-13T03:28:53.033Z,2.67
2023-04-13T03:32:01.779Z,2.70
2023-04-13T03:35:14.082Z,2.47
2023-04-13T03:38:23.962Z,2.93
2023-04-13T03:41:34.026Z,3.00
2023-04-13T03:44:43.581Z,3.10
2023-04-13T03:47:52.501Z,3.13
2023-04-13T03:51:03.255Z,3.00
2023-04-13T03:54:23.976Z,3.47
2023-04-13T03:57:33.367Z,3.43
2023-04-13T04:00:44.653Z,2.80
2023-04-13T04:04:04.995Z,3.50
2023-04-13T04:07:13.903Z,3.33
2023-04-13T04:10:24.144Z,3.30
2023-04-13T04:13:32.951Z,3.20
2023-04-13T04:16:45.291Z,3.57
2023-04-13T04:19:56.860Z,3.57
2023-04-13T04:23:09.905Z,3.40
2023-04-13T04:26:38.236Z,3.40
2023-04-13T04:29:49.505Z,3.27
2023-04-13T04:33:07.443Z,4.13
2023-04-13T04:36:18.620Z,4.17
2023-04-13T04:39:44.685Z,3.33
2023-04-13T04:42:59.660Z,3.70
2023-04-13T04:46:17.216Z,4.43
2023-04-13T04:49:32.134Z,4.03
2023-04-13T04:52:43.546Z,4.10
2023-04-13T04:55:55.380Z,4.00
2023-04-13T04:59:20.783Z,4.17
2023-04-13T05:02:42.513Z,3.90
2023-04-13T05:05:52.927Z,3.83
2023-04-13T05:09:09.990Z,4.90
2023-04-13T05:12:21.371Z,4.50
2023-04-13T05:15:31.240Z,4.33
2023-04-13T05:18:48.222Z,5.27
2023-04-13T05:22:26.076Z,4.90
2023-04-13T05:25:41.773Z,4.83
2023-04-13T05:28:58.319Z,4.33
2023-04-13T05:32:11.129Z,4.67
2023-04-13T05:35:19.830Z,4.90
2023-04-13T05:38:28.767Z,5.00
2023-04-13T05:41:38.895Z,6.20
2023-04-13T05:44:48.762Z,4.27
2023-04-13T05:48:01.280Z,4.90
2023-04-13T05:51:10.563Z,5.17
2023-04-13T05:54:19.023Z,4.77
2023-04-13T05:57:30.984Z,5.57
2023-04-13T06:00:43.199Z,5.83
2023-04-13T06:03:56.547Z,5.40
2023-04-13T06:07:05.891Z,5.37
2023-04-13T06:10:16.868Z,5.00
2023-04-13T06:13:26.079Z,5.83
2023-04-13T06:16:34.435Z,6.00
2023-04-13T06:19:44.474Z,5.40
2023-04-13T06:22:52.905Z,7.90
2023-04-13T06:26:05.761Z,5.93
2023-04-13T06:29:28.808Z,6.60
2023-04-13T06:32:47.187Z,5.33
2023-04-13T06:36:00.336Z,5.80
2023-04-13T06:39:10.478Z,5.70
2023-04-13T06:42:20.122Z,7.97
2023-04-13T06:45:49.623Z,5.97
2023-04-13T06:49:02.804Z,6.20
2023-04-13T06:52:14.849Z,5.70
2023-04-13T06:55:23.741Z,6.23
2023-04-13T06:58:32.262Z,6.63
2023-04-13T07:01:40.792Z,7.93
2023-04-13T07:04:49.782Z,6.30
2023-04-13T07:07:59.981Z,8.47
2023-04-13T07:11:10.322Z,7.07
2023-04-13T07:14:20.833Z,8.20
2023-04-13T07:17:30.072Z,6.33
2023-04-13T07:20:39.764Z,6.37
2023-04-13T07:23:50.259Z,6.23
2023-04-13T07:26:59.748Z,6.00
2023-04-13T07:30:10.128Z,5.93
2023-04-13T07:33:23.456Z,5.70
2023-04-13T07:36:33.571Z,5.03
2023-04-13T07:39:49.707Z,4.87
2023-04-13T07:42:59.520Z,4.90
2023-04-13T07:46:11.911Z,5.33
2023-04-13T07:49:22.825Z,4.40
2023-04-13T07:52:32.461Z,5.73
2023-04-13T07:55:42.620Z,4.43
2023-04-13T07:58:51.818Z,5.03
2023-04-13T08:02:01.010Z,4.43
2023-04-13T08:05:13.906Z,4.83
2023-04-13T08:08:24.939Z,4.50
2023-04-13T08:11:34.811Z,4.60
2023-04-13T08:14:47.451Z,5.13
2023-04-13T08:17:56.125Z,4.57
2023-04-13T08:21:11.033Z,4.30
2023-04-13T08:24:21.873Z,3.80
2023-04-13T08:27:31.804Z,4.17
2023-04-13T08:30:40.305Z,3.60
2023-04-13T08:33:57.720Z,4.07
2023-04-13T08:37:07.438Z,4.20
2023-04-13T08:40:20.128Z,4.40
2023-04-13T08:43:30.434Z,4.20
2023-04-13T08:46:39.463Z,4.00
2023-04-13T08:49:50.584Z,3.27
2023-04-13T08:53:03.882Z,3.47
2023-04-13T08:56:16.168Z,3.80
2023-04-13T08:59:31.569Z,3.20
2023-04-13T09:02:56.211Z,3.70
2023-04-13T09:06:14.009Z,3.13
2023-04-13T09:09:24.218Z,3.20
2023-04-13T09:12:33.767Z,3.10
2023-04-13T09:15:47.381Z,3.07
2023-04-13T09:19:32.052Z,3.57
2023-04-13T09:22:41.096Z,4.60
2023-04-13T09:25:50.480Z,3.30
2023-04-13T09:28:59.723Z,3.27
2023-04-13T09:32:20.887Z,3.60
2023-04-13T09:35:32.994Z,3.60
2023-04-13T09:38:44.520Z,3.40
2023-04-13T09:41:53.600Z,3.47
2023-04-13T09:45:02.278Z,3.63
2023-04-13T09:48:20.766Z,3.60
2023-04-13T09:51:37.417Z,3.27
2023-04-13T09:54:51.352Z,3.47
2023-04-13T09:58:11.340Z,5.03
2023-04-13T10:01:21.086Z,3.97
2023-04-13T10:04:32.352Z,3.53
2023-04-13T10:07:44.246Z,3.37
2023-04-13T10:10:52.938Z,3.67
2023-04-13T10:14:11.233Z,3.23
2023-04-13T10:17:41.039Z,3.53
2023-04-13T10:20:53.548Z,3.90
2023-04-13T10:24:02.725Z,3.43
2023-04-13T10:27:17.715Z,3.37
2023-04-13T10:30:27.814Z,3.60
2023-04-13T10:33:36.243Z,3.40
2023-04-13T10:36:47.018Z,3.33
2023-04-13T10:40:06.468Z,4.00
2023-04-13T10:43:29.919Z,3.30
2023-04-13T10:46:38.513Z,3.40
2023-04-13T10:49:47.886Z,3.40
2023-04-13T10:53:03.932Z,3.67
2023-04-13T10:56:17.949Z,3.03
2023-04-13T10:59:53.039Z,3.10
2023-04-13T11:03:06.633Z,2.80
2023-04-13T11:06:16.746Z,3.37
2023-04-13T11:09:30.261Z,2.90
2023-04-13T11:12:38.683Z,3.50
2023-04-13T11:15:47.171Z,3.67
2023-04-13T11:19:05.515Z,3.13
2023-04-13T11:22:18.028Z,3.40
2023-04-13T11:25:28.815Z,2.67
2023-04-13T11:28:42.268Z,2.83
2023-04-13T11:31:53.671Z,2.77
2023-04-13T11:35:09.577Z,4.13
2023-04-13T11:38:18.865Z,6.07
2023-04-13T11:41:32.404Z,4.03
2023-04-13T11:44:42.804Z,3.20
2023-04-13T11:47:51.835Z,2.97
2023-04-13T11:51:01.251Z,2.87
2023-04-13T11:54:10.663Z,2.63
2023-04-13T11:57:20.751Z,2.60
2023-04-13T12:00:29.941Z,3.00
2023-04-13T12:03:53.609Z,2.80
2023-04-13T12:07:15.239Z,2.77
2023-04-13T12:10:29.229Z,2.50
2023-04-13T12:14:05.964Z,3.20
2023-04-13T12:17:38.036Z,2.50
2023-04-13T12:20:48.792Z,2.73
2023-04-13T12:23:59.336Z,2.40
2023-04-13T12:30:23.509Z,2.50
2023-04-13T12:33:32.702Z,3.03
2023-04-13T12:36:41.288Z,2.70
2023-04-13T12:39:49.745Z,3.13
2023-04-13T12:42:58.188Z,3.00
2023-04-13T12:46:08.087Z,3.20
2023-04-13T12:49:16.675Z,2.90
2023-04-13T12:52:57.040Z,3.03
2023-04-13T12:56:05.819Z,3.10
2023-04-13T12:59:14.198Z,3.70
2023-04-13T13:02:25.189Z,3.53
2023-04-13T13:05:33.764Z,3.70
2023-04-13T13:08:45.204Z,3.43
2023-04-13T13:11:53.744Z,3.50
2023-04-13T13:15:03.297Z,3.50
2023-04-13T13:18:13.702Z,3.40
2023-04-13T13:21:23.233Z,3.80
2023-04-13T13:24:31.965Z,3.53
2023-04-13T13:28:12.697Z,4.20
2023-04-13T13:31:13.318Z,3.10
2023-04-13T13:34:23.385Z,3.30
2023-04-13T13:37:31.807Z,3.23
2023-04-13T13:40:40.464Z,3.30
2023-04-13T13:43:52.025Z,3.03
2023-04-13T13:47:01.275Z,3.20
2023-04-13T13:50:13.207Z,3.20
2023-04-13T13:53:25.960Z,2.70
2023-04-13T13:56:35.873Z,3.57
2023-04-13T13:59:44.304Z,3.13
2023-04-13T14:02:53.119Z,2.60
2023-04-13T14:06:03.470Z,3.00
2023-04-13T14:09:12.345Z,3.07
2023-04-13T14:12:20.665Z,3.30
2023-04-13T14:15:29.220Z,3.07
2023-04-13T14:18:37.640Z,3.10
2023-04-13T14:21:49.048Z,2.70
2023-04-13T14:24:57.483Z,2.90
2023-04-13T14:28:09.494Z,2.80
2023-04-13T14:31:18.036Z,2.43
2023-04-13T14:34:26.706Z,2.87
2023-04-13T14:37:36.589Z,3.23
2023-04-13T14:40:45.195Z,2.60
2023-04-13T14:43:56.510Z,2.60
2023-04-13T14:47:08.647Z,2.57
2023-04-13T14:50:18.433Z,2.37
2023-04-13T14:53:28.333Z,2.83
2023-04-13T14:56:36.734Z,2.60
2023-04-13T14:59:56.654Z,2.10
2023-04-13T15:03:06.288Z,2.17
2023-04-13T15:06:15.126Z,2.10
2023-04-13T15:09:25.760Z,2.20
2023-04-13T15:12:36.455Z,2.27
2023-04-13T15:15:44.888Z,2.03
2023-04-13T15:18:53.236Z,2.07
2023-04-13T15:22:02.680Z,2.00
2023-04-13T15:25:15.438Z,2.47
2023-04-13T15:28:23.876Z,2.40
2023-04-13T15:31:33.469Z,2.20
2023-04-13T15:34:44.708Z,2.63
2023-04-13T15:37:53.279Z,2.00
2023-04-13T15:41:04.312Z,2.17
2023-04-13T15:44:12.854Z,2.30
2023-04-13T15:47:22.765Z,2.20
2023-04-13T15:50:31.221Z,2.77
2023-04-13T15:53:39.573Z,2.40
2023-04-13T15:56:49.540Z,2.90
2023-04-13T15:59:58.203Z,2.10
2023-04-13T16:03:07.267Z,2.10
2023-04-13T16:06:16.148Z,2.70
2023-04-13T16:09:29.696Z,2.97
2023-04-13T16:12:43.504Z,2.83
2023-04-13T16:15:57.181Z,3.03
2023-04-13T16:19:05.713Z,2.40
2023-04-13T16:22:14.275Z,2.70
2023-04-13T16:25:22.800Z,2.47
2023-04-13T16:28:35.465Z,2.53
2023-04-13T16:31:47.959Z,0.70
2023-04-13T16:34:57.134Z,1.60
2023-04-13T16:38:06.970Z,2.30
2023-04-13T16:41:16.848Z,1.00
2023-04-13T16:44:27.064Z,0.90
2023-04-13T16:47:35.379Z,1.03
2023-04-13T16:50:43.761Z,1.60
2023-04-13T16:53:52.171Z,1.10
2023-04-13T16:57:00.622Z,1.37
2023-04-13T17:00:11.834Z,1.10
2023-04-13T17:03:21.901Z,2.23
2023-04-13T17:06:30.383Z,2.40
2023-04-13T17:09:38.673Z,1.20
2023-04-13T17:12:48.260Z,1.33
2023-04-13T17:15:58.013Z,2.20
2023-04-13T17:19:07.338Z,0.80
2023-04-13T17:22:15.720Z,1.73
2023-04-13T17:25:24.304Z,2.20
2023-04-13T17:28:32.753Z,3.57
2023-04-13T17:31:42.663Z,1.17
2023-04-13T17:34:51.488Z,2.07
2023-04-13T17:37:59.784Z,1.23
2023-04-13T17:41:08.089Z,1.30
2023-04-13T17:44:17.497Z,1.37
2023-04-13T17:47:27.984Z,1.13
2023-04-13T17:50:36.301Z,1.67
2023-04-13T17:53:44.660Z,2.53
2023-04-13T17:56:53.124Z,1.50
2023-04-13T18:00:02.069Z,2.17
2023-04-13T18:03:14.651Z,2.40
2023-04-13T18:06:23.223Z,2.60
2023-04-13T18:09:31.882Z,3.07
2023-04-13T18:12:40.665Z,3.87
2023-04-13T18:15:50.334Z,3.60
2023-04-13T18:19:01.212Z,3.57
2023-04-13T18:22:09.716Z,3.53
2023-04-13T18:25:18.058Z,4.00
2023-04-13T18:28:26.960Z,3.87
2023-04-13T18:31:35.426Z,3.67
2023-04-13T18:34:45.200Z,3.83
2023-04-13T18:37:53.866Z,3.57
2023-04-13T18:41:02.248Z,4.13
2023-04-13T18:44:10.757Z,3.63
2023-04-13T18:47:20.614Z,3.87
2023-04-13T18:50:30.547Z,4.13
2023-04-13T18:53:38.915Z,3.90
2023-04-13T18:56:48.438Z,3.67
2023-04-13T18:59:57.287Z,3.83
2023-04-13T19:03:05.763Z,4.20
2023-04-13T19:06:15.508Z,3.83
2023-04-13T19:09:23.832Z,3.60
2023-04-13T19:12:33.005Z,3.33
2023-04-13T19:15:41.752Z,3.70
2023-04-13T19:18:50.037Z,3.83
2023-04-13T19:21:59.793Z,3.43
2023-04-13T19:25:14.090Z,3.30
2023-04-13T19:28:22.477Z,3.23
2023-04-13T19:31:31.338Z,3.20
2023-04-13T19:34:39.900Z,3.03
2023-04-13T19:37:49.927Z,3.60
2023-04-13T19:40:58.754Z,3.20
2023-04-13T19:44:08.765Z,3.23
2023-04-13T19:47:17.820Z,2.47
2023-04-13T19:50:26.562Z,2.83
2023-04-13T19:53:38.273Z,2.23
2023-04-13T19:56:47.332Z,2.30
2023-04-13T19:59:58.885Z,2.60
2023-04-13T20:03:08.464Z,3.37
2023-04-13T20:06:17.188Z,2.63
2023-04-13T20:09:27.375Z,3.13
2023-04-13T20:12:35.720Z,2.90
2023-04-13T20:15:44.140Z,2.87
2023-04-13T20:18:52.830Z,3.20
2023-04-13T20:22:02.274Z,3.00
2023-04-13T20:25:12.424Z,3.50
2023-04-13T20:28:21.506Z,3.53
2023-04-13T20:31:30.817Z,4.17
2023-04-13T20:34:39.278Z,4.07
2023-04-13T20:37:47.788Z,5.03
2023-04-13T20:40:59.257Z,4.03
2023-04-13T20:44:09.816Z,3.67
2023-04-13T20:47:19.547Z,4.23
2023-04-13T20:50:29.405Z,4.53
2023-04-13T20:53:41.500Z,4.47
2023-04-13T20:56:51.291Z,4.47
2023-04-13T20:59:59.638Z,4.13
2023-04-13T21:03:08.965Z,4.17
2023-04-13T21:06:20.082Z,4.10
2023-04-13T21:09:28.614Z,4.50
2023-04-13T21:12:38.772Z,4.73
2023-04-13T21:15:48.668Z,4.40
2023-04-13T21:18:57.249Z,4.37
2023-04-13T21:22:06.146Z,4.50
2023-04-13T21:25:16.782Z,4.70
2023-04-13T21:28:26.762Z,4.80
2023-04-13T21:31:35.255Z,4.40
2023-04-13T21:34:43.607Z,4.97
2023-04-13T21:37:51.911Z,4.63
2023-04-13T21:41:00.272Z,4.77
2023-04-13T21:44:26.109Z,4.60
2023-04-13T21:47:37.456Z,4.20
2023-04-13T21:50:47.646Z,5.13
2023-04-13T21:53:56.712Z,4.77
2023-04-13T21:57:05.845Z,5.00
2023-04-13T22:00:17.255Z,4.73
2023-04-13T22:03:25.799Z,4.63
2023-04-13T22:06:34.291Z,5.43
2023-04-13T22:09:42.706Z,4.70
2023-04-13T22:12:51.043Z,4.73
2023-04-13T22:16:00.916Z,4.50
2023-04-13T22:19:09.549Z,5.37
2023-04-13T22:22:18.029Z,5.13
2023-04-13T22:25:27.964Z,4.77
2023-04-13T22:28:38.574Z,4.93
2023-04-13T22:31:48.367Z,4.77
2023-04-13T22:34:57.770Z,4.73
2023-04-13T22:38:06.081Z,5.00
2023-04-13T22:41:14.695Z,4.87
2023-04-13T22:44:22.954Z,5.10
2023-04-13T22:47:32.820Z,5.57
2023-04-13T22:50:42.593Z,5.03
2023-04-13T22:53:51.046Z,5.40
2023-04-13T22:57:02.824Z,5.40
2023-04-13T23:00:13.543Z,5.37
2023-04-13T23:03:23.647Z,4.50
2023-04-13T23:06:32.417Z,4.80
2023-04-13T23:09:40.703Z,5.07
2023-04-13T23:12:49.152Z,5.30
2023-04-13T23:16:01.405Z,5.90
2023-04-13T23:19:11.460Z,5.20
2023-04-13T23:22:19.754Z,4.80
2023-04-13T23:25:28.244Z,4.73
2023-04-13T23:28:36.646Z,4.27
2023-04-13T23:31:45.037Z,5.30
2023-04-13T23:34:55.096Z,4.87
2023-04-13T23:38:03.785Z,5.70
2023-04-13T23:41:12.435Z,4.97
2023-04-13T23:44:20.759Z,5.57
2023-04-13T23:47:29.107Z,5.30
2023-04-13T23:50:43.489Z,5.37
2023-04-13T23:53:51.853Z,7.10
2023-04-13T23:57:00.287Z,5.60
